Exeland, Wisconsin
Current Conditions -  °F | °C
As of 8:15 AM on Friday 24 Oct 2014 (Local Time) from KRCX Reporting Station
Haze Haze  
Wind Chill:   Ceiling: 100
Heat Index:   Visibility: 1.2mi
Dew Point:   Wind: 6mph
Humidity: 97%   Direction: 170°S
Pressure: 29.99"   Gusts: NA
Location:  45.67°N, 91.24°W
Report Text: KRCX 241315Z AUTO 17005KT 1 1/4SM BR OVC001 08/08 A2999 RMK AO2 T00840080
Loading
Personal Weather Stations






























Interactive Weather Map
Tropical Storm Tracking
New forecast layout! Learn more

10-Day Weather Forecast

Advertisements
Track Severe Weather on mobile